This is the latest recevied weather packets stored in our database for station/object AA4XD. If no packets are shown the sender has not sent any weather packets the latest 10 day(s).
| Time | Temp. | Humidity | Pressure | Rain* | Wind** | Luminosity | Snow |
|---|---|---|---|---|---|---|---|
| 1777652323 | 30.56° C | 48% | 1011.5 hPa | 0 mm | - | 672 W/m² | - |
| 1777652020 | 30.56° C | 50% | 1011.5 hPa | 0 mm | - | 959 W/m² | - |
| 1777651717 | 31.11° C | 47% | 1011.7 hPa | 0 mm | - | 856 W/m² | - |
| 1777651413 | 31.67° C | 47% | 1011.9 hPa | 0 mm | - | 938 W/m² | - |
| 1777651111 | 31.11° C | 48% | 1011.8 hPa | 0 mm | - | 896 W/m² | - |
| 1777650808 | 31.11° C | 48% | 1011.9 hPa | 0 mm | - | 758 W/m² | - |
| 1777650504 | 31.11° C | 50% | 1011.8 hPa | 0 mm | - | 990 W/m² | - |
| 1777650202 | 31.11° C | 49% | 1011.6 hPa | 0 mm | - | 909 W/m² | - |
| 1777649899 | 30.56° C | 50% | 1011.8 hPa | 0 mm | - | 803 W/m² | - |
| 1777649597 | 30° C | 52% | 1011.6 hPa | 0 mm | - | 900 W/m² | - |
| 1777649292 | 30° C | 51% | 1011.6 hPa | 0 mm | - | 821 W/m² | - |
| 1777648989 | 29.44° C | 52% | 1011.9 hPa | 0 mm | - | 618 W/m² | - |
| 1777648687 | 28.89° C | 54% | 1011.9 hPa | 0 mm | - | 430 W/m² | - |
| 1777648383 | 28.89° C | 53% | 1011.8 hPa | 0 mm | - | 427 W/m² | - |
| 1777648079 | 29.44° C | 52% | 1011.9 hPa | 0 mm | - | 505 W/m² | - |
| 1777647776 | 29.44° C | 53% | 1011.7 hPa | 0 mm | - | 829 W/m² | - |
| 1777647472 | 29.44° C | 52% | 1011.8 hPa | 0 mm | - | 817 W/m² | - |
| 1777647170 | 30° C | 53% | 1011.9 hPa | 0 mm | - | 744 W/m² | - |
| 1777646866 | 30° C | 52% | 1011.8 hPa | 0 mm | - | 499 W/m² | - |
| 1777646562 | 29.44° C | 54% | 1011.7 hPa | 0 mm | - | 836 W/m² | - |
| 1777646258 | 29.44° C | 53% | 1011.7 hPa | 0 mm | - | 733 W/m² | - |
| 1777645956 | 27.78° C | 58% | 1011.7 hPa | 0 mm | - | 758 W/m² | - |
| 1777645652 | 28.33° C | 56% | 1011.8 hPa | 0 mm | - | 664 W/m² | - |
| 1777645348 | 27.78° C | 57% | 1011.7 hPa | 0 mm | - | 681 W/m² | - |
| 1777645044 | 27.78° C | 57% | 1011.6 hPa | 0 mm | - | 627 W/m² | - |
* Rain latest hour (hover to see other rain measurements)
** Current wind speed in m/s (hover to see current wind gust speed)